Archival Weather

NSFA McMurdo Sound

NSFA McMurdo Sound, Antarctica (NZCM)

Report from: Saturday, April 1, 2023 9:55 AM UTC
Current time: Monday, July 22, 2024 11:38 AM UTC

Current weather – Weather history – Daily summaries
Weather forecast

Temperature-19.1°C (-2.4°F)
Wind chill-25.8°C (-14.4°F)
Dew point-23.1°C (-9.6°F)
Winds 5 kts (2.6 m/s, 5.8 mph) Northeast (50°)
Visibility6.2 mi. (10 km)
Clouds Sky clear
Altimeter29.88 in.Hg (1012 mB)
Relative humidity70 %
Density altitude-4,314 ft. (-1,315 m)
Sea-level pressure101.3 kPa (1013 mB, 29.90 in.Hg)
Remarks Fully automated report
Automated weather observing station with precipitation discriminator
Flight conditions Visual Meteorological Conditions
Raw dataNZCM 010955Z AUTO 05005KT 9999 CLR M19/M23 A2988 RMK AO2 SLP126 T11911231
An error has occurred. This application may no longer respond until reloaded. Reload 🗙